createdAt,value
2023-01-27T00:02:27.474Z,80.70
2023-01-27T00:05:15.120Z,80.40
2023-01-27T00:08:03.623Z,80.40
2023-01-27T00:11:08.893Z,81.00
2023-01-27T00:13:54.089Z,81.10
2023-01-27T00:16:41.394Z,80.70
2023-01-27T00:19:27.098Z,80.30
2023-01-27T00:22:30.671Z,80.50
2023-01-27T00:25:16.493Z,80.80
2023-01-27T00:28:05.782Z,80.30
2023-01-27T00:30:51.632Z,80.80
2023-01-27T00:33:37.316Z,80.50
2023-01-27T00:36:25.425Z,80.10
2023-01-27T00:39:12.491Z,80.00
2023-01-27T00:41:57.912Z,80.00
2023-01-27T00:45:03.036Z,80.00
2023-01-27T00:47:52.472Z,79.70
2023-01-27T00:50:38.694Z,80.00
2023-01-27T00:53:24.253Z,80.10
2023-01-27T00:56:10.124Z,80.10
2023-01-27T00:58:58.313Z,79.90
2023-01-27T01:01:43.683Z,80.10
2023-01-27T01:04:29.048Z,80.40
2023-01-27T01:07:14.603Z,80.70
2023-01-27T01:10:00.209Z,80.90
2023-01-27T01:12:45.922Z,81.10
2023-01-27T01:15:31.258Z,81.40
2023-01-27T01:18:17.093Z,81.60
2023-01-27T01:21:02.853Z,81.60
2023-01-27T01:23:51.415Z,81.90
2023-01-27T01:26:39.279Z,81.80
2023-01-27T01:29:24.616Z,81.90
2023-01-27T01:32:10.022Z,82.50
2023-01-27T01:34:55.187Z,82.40
2023-01-27T01:37:40.842Z,82.80
2023-01-27T01:40:26.432Z,82.80
2023-01-27T01:43:18.628Z,82.80
2023-01-27T01:46:05.077Z,83.50
2023-01-27T01:49:01.417Z,83.00
2023-01-27T01:51:51.874Z,83.30
2023-01-27T01:54:43.233Z,83.10
2023-01-27T01:57:33.817Z,82.60
2023-01-27T02:00:19.524Z,82.00
2023-01-27T02:03:05.080Z,81.20
2023-01-27T02:05:55.120Z,81.30
2023-01-27T02:08:44.297Z,81.00
2023-01-27T02:11:34.655Z,80.80
2023-01-27T02:14:20.463Z,80.90
2023-01-27T02:17:06.082Z,80.50
2023-01-27T02:20:15.300Z,80.00
2023-01-27T02:23:40.783Z,79.60
2023-01-27T02:26:31.935Z,79.70
2023-01-27T02:29:17.327Z,79.30
2023-01-27T02:32:02.821Z,79.30
2023-01-27T02:34:48.121Z,79.20
2023-01-27T02:37:35.951Z,79.10
2023-01-27T02:40:21.873Z,78.70
2023-01-27T02:43:07.146Z,79.00
2023-01-27T02:45:55.249Z,78.70
2023-01-27T02:48:43.591Z,78.70
2023-01-27T02:51:31.972Z,78.90
2023-01-27T02:54:19.405Z,78.50
2023-01-27T02:57:04.808Z,78.40
2023-01-27T02:59:52.296Z,78.80
2023-01-27T03:02:39.698Z,78.80
2023-01-27T03:05:25.511Z,78.50
2023-01-27T03:08:14.017Z,78.60
2023-01-27T03:10:59.485Z,78.30
2023-01-27T03:13:44.760Z,78.60
2023-01-27T03:16:48.765Z,78.60
2023-01-27T03:19:34.411Z,78.60
2023-01-27T03:22:22.300Z,78.20
2023-01-27T03:25:08.170Z,78.40
2023-01-27T03:27:53.412Z,78.00
2023-01-27T03:30:39.644Z,78.30
2023-01-27T03:33:25.292Z,78.30
2023-01-27T03:36:29.675Z,78.00
2023-01-27T03:39:33.858Z,77.70
2023-01-27T03:42:40.408Z,77.80
2023-01-27T03:45:44.379Z,78.30
2023-01-27T03:48:32.018Z,78.80
2023-01-27T03:51:20.076Z,78.80
2023-01-27T03:54:05.851Z,78.70
2023-01-27T03:56:51.088Z,78.90
2023-01-27T03:59:36.435Z,78.80
2023-01-27T04:02:40.271Z,79.30
2023-01-27T04:05:44.149Z,79.20
2023-01-27T04:08:29.290Z,79.00
2023-01-27T04:11:33.229Z,79.10
2023-01-27T04:14:19.404Z,79.20
2023-01-27T04:17:18.463Z,79.10
2023-01-27T04:20:04.016Z,79.20
2023-01-27T04:22:49.341Z,79.00
2023-01-27T04:25:34.695Z,78.90
2023-01-27T04:28:37.251Z,79.00
2023-01-27T04:31:26.378Z,79.00
2023-01-27T04:34:12.994Z,79.30
2023-01-27T04:37:03.247Z,79.60
2023-01-27T04:39:49.404Z,79.40
2023-01-27T04:42:34.594Z,79.50
2023-01-27T04:45:19.792Z,79.60
2023-01-27T04:48:08.044Z,79.60
2023-01-27T04:50:53.753Z,79.50
2023-01-27T04:53:41.301Z,79.40
2023-01-27T04:56:26.605Z,79.10
2023-01-27T04:59:15.694Z,79.10
2023-01-27T05:02:01.257Z,79.00
2023-01-27T05:04:46.741Z,78.80
2023-01-27T05:07:32.379Z,78.80
2023-01-27T05:10:18.252Z,79.00
2023-01-27T05:13:03.532Z,79.20
2023-01-27T05:15:48.960Z,78.90
2023-01-27T05:18:34.693Z,78.50
2023-01-27T05:21:24.126Z,78.40
2023-01-27T05:24:11.196Z,78.60
2023-01-27T05:26:57.615Z,78.20
2023-01-27T05:29:43.297Z,77.90
2023-01-27T05:32:31.551Z,77.70
2023-01-27T05:35:17.016Z,77.80
2023-01-27T05:38:02.538Z,77.90
2023-01-27T05:40:49.923Z,78.30
2023-01-27T05:43:42.449Z,78.20
2023-01-27T05:46:30.776Z,78.60
2023-01-27T05:49:20.870Z,78.80
2023-01-27T05:52:08.332Z,80.10
2023-01-27T05:54:53.549Z,81.90
2023-01-27T05:57:39.172Z,82.60
2023-01-27T06:00:27.054Z,82.90
2023-01-27T06:03:13.292Z,83.30
2023-01-27T06:05:58.992Z,83.10
2023-01-27T06:08:45.622Z,83.80
2023-01-27T06:11:31.186Z,84.20
2023-01-27T06:14:16.594Z,84.70
2023-01-27T06:17:04.308Z,86.20
2023-01-27T06:19:49.990Z,88.20
2023-01-27T06:22:37.992Z,89.60
2023-01-27T06:25:23.525Z,90.10
2023-01-27T06:28:23.324Z,90.20
2023-01-27T06:31:21.883Z,90.30
2023-01-27T06:34:07.283Z,90.50
2023-01-27T06:36:55.921Z,91.10
2023-01-27T06:39:43.916Z,91.60
2023-01-27T06:42:34.792Z,91.50
2023-01-27T06:45:20.660Z,91.80
2023-01-27T06:48:09.719Z,92.20
2023-01-27T06:50:57.806Z,92.90
2023-01-27T06:53:43.350Z,93.20
2023-01-27T06:56:28.822Z,93.20
2023-01-27T06:59:14.258Z,93.40
2023-01-27T07:01:59.940Z,93.60
2023-01-27T07:04:45.248Z,93.40
2023-01-27T07:07:30.660Z,93.20
2023-01-27T07:10:19.049Z,93.30
2023-01-27T07:13:13.192Z,93.00
2023-01-27T07:15:58.722Z,92.60
2023-01-27T07:18:44.051Z,92.50
2023-01-27T07:21:29.769Z,92.20
2023-01-27T07:24:17.717Z,92.20
2023-01-27T07:27:03.437Z,92.20
2023-01-27T07:29:49.046Z,92.50
2023-01-27T07:32:34.897Z,92.10
2023-01-27T07:35:22.967Z,91.80
2023-01-27T07:38:11.033Z,91.80
2023-01-27T07:40:58.051Z,91.80
2023-01-27T07:43:45.860Z,91.90
2023-01-27T07:46:31.024Z,91.60
2023-01-27T07:49:16.742Z,91.40
2023-01-27T07:52:02.276Z,91.70
2023-01-27T07:54:47.633Z,92.00
2023-01-27T07:57:36.124Z,92.30
2023-01-27T08:00:22.593Z,92.10
2023-01-27T08:03:08.306Z,91.70
2023-01-27T08:05:56.768Z,91.90
2023-01-27T08:08:44.541Z,91.70
2023-01-27T08:11:30.155Z,91.60
2023-01-27T08:14:15.535Z,91.70
2023-01-27T08:17:01.627Z,91.50
2023-01-27T08:19:47.028Z,91.10
2023-01-27T08:22:32.458Z,91.10
2023-01-27T08:25:17.841Z,91.10
2023-01-27T08:28:05.847Z,91.00
2023-01-27T08:30:52.110Z,90.80
2023-01-27T08:33:38.331Z,90.90
2023-01-27T08:36:25.058Z,90.50
2023-01-27T08:39:11.538Z,90.40
2023-01-27T08:41:57.362Z,90.60
2023-01-27T08:44:42.782Z,90.70
2023-01-27T08:47:28.073Z,91.10
2023-01-27T08:50:13.858Z,91.30
2023-01-27T08:53:04.137Z,90.60
2023-01-27T08:55:50.298Z,90.60
2023-01-27T08:58:38.764Z,90.40
2023-01-27T09:01:24.248Z,90.30
2023-01-27T09:04:10.412Z,90.20
2023-01-27T09:06:58.563Z,90.00
2023-01-27T09:09:46.991Z,90.10
2023-01-27T09:12:32.822Z,89.20
2023-01-27T09:15:18.348Z,88.30
2023-01-27T09:18:06.649Z,88.50
2023-01-27T09:20:52.056Z,88.50
2023-01-27T09:23:37.435Z,87.40
2023-01-27T09:26:22.950Z,86.90
2023-01-27T09:29:08.495Z,87.20
2023-01-27T09:31:53.974Z,87.10
2023-01-27T09:34:42.044Z,87.40
2023-01-27T09:37:28.024Z,87.10
2023-01-27T09:40:42.349Z,87.20
2023-01-27T09:43:52.389Z,87.60
2023-01-27T09:47:23.842Z,86.80
2023-01-27T09:50:21.501Z,87.10
2023-01-27T09:53:38.351Z,86.80
2023-01-27T09:56:35.755Z,87.10
2023-01-27T09:59:46.620Z,86.80
2023-01-27T10:03:11.676Z,86.90
2023-01-27T10:06:06.466Z,86.00
2023-01-27T10:09:35.677Z,86.60
2023-01-27T10:12:47.739Z,86.50
2023-01-27T10:15:58.888Z,86.00
2023-01-27T10:18:53.356Z,85.30
2023-01-27T10:22:01.516Z,85.00
2023-01-27T10:24:49.974Z,84.90
2023-01-27T10:27:40.173Z,84.10
2023-01-27T10:30:28.453Z,84.60
2023-01-27T10:33:20.460Z,83.60
2023-01-27T10:36:33.989Z,82.90
2023-01-27T10:39:46.917Z,82.50
2023-01-27T10:42:58.315Z,82.70
2023-01-27T10:46:21.751Z,82.90
2023-01-27T10:49:24.118Z,82.10
2023-01-27T10:52:15.775Z,82.20
2023-01-27T10:55:09.929Z,81.20
2023-01-27T10:57:57.273Z,81.80
2023-01-27T11:01:19.204Z,80.20
2023-01-27T11:03:59.582Z,80.70
2023-01-27T11:06:46.754Z,80.20
2023-01-27T11:09:36.288Z,79.10
2023-01-27T11:12:38.997Z,79.20
2023-01-27T11:15:29.215Z,78.30
2023-01-27T11:18:23.708Z,77.60
2023-01-27T11:21:21.823Z,76.60
2023-01-27T11:24:33.917Z,75.20
2023-01-27T11:27:46.293Z,74.90
2023-01-27T11:30:42.889Z,74.10
2023-01-27T11:33:51.689Z,74.60
2023-01-27T11:36:37.526Z,74.60
2023-01-27T11:39:23.115Z,74.40
2023-01-27T11:42:11.485Z,73.80
2023-01-27T11:44:58.731Z,73.60
2023-01-27T11:47:45.743Z,74.10
2023-01-27T11:50:34.947Z,74.80
2023-01-27T11:53:30.113Z,74.10
2023-01-27T11:56:18.679Z,73.40
2023-01-27T11:59:13.840Z,72.40
2023-01-27T12:02:11.871Z,72.40
2023-01-27T12:05:06.957Z,72.90
2023-01-27T12:08:04.552Z,71.90
2023-01-27T12:10:50.236Z,72.30
2023-01-27T12:13:47.599Z,73.00
2023-01-27T12:16:54.608Z,72.90
2023-01-27T12:19:43.575Z,73.60
2023-01-27T12:22:39.197Z,74.20
2023-01-27T12:25:32.223Z,74.00
2023-01-27T12:28:46.585Z,74.70
2023-01-27T12:31:46.058Z,75.00
2023-01-27T12:34:35.084Z,75.90
2023-01-27T12:37:32.532Z,75.50
2023-01-27T12:40:25.419Z,76.10
2023-01-27T12:43:16.677Z,75.90
2023-01-27T12:46:18.121Z,75.70
2023-01-27T12:49:15.692Z,75.60
2023-01-27T12:52:08.509Z,75.90
2023-01-27T12:54:56.947Z,75.40
2023-01-27T12:57:46.644Z,76.00
2023-01-27T13:00:34.194Z,75.60
2023-01-27T13:03:22.008Z,75.80
2023-01-27T13:06:08.283Z,76.50
2023-01-27T13:08:53.999Z,76.20
2023-01-27T13:11:40.869Z,76.00
2023-01-27T13:14:30.592Z,76.30
2023-01-27T13:17:30.087Z,76.20
2023-01-27T13:20:19.391Z,76.30
2023-01-27T13:23:13.108Z,76.60
2023-01-27T13:26:08.325Z,76.30
2023-01-27T13:28:53.733Z,77.00
2023-01-27T13:31:43.227Z,77.10
2023-01-27T13:34:46.800Z,76.50
2023-01-27T13:37:37.888Z,76.70
2023-01-27T13:40:43.336Z,76.60
2023-01-27T13:43:40.467Z,75.90
2023-01-27T13:46:30.476Z,75.20
2023-01-27T13:49:33.368Z,75.10
2023-01-27T13:52:21.159Z,74.20
2023-01-27T13:55:11.628Z,73.80
2023-01-27T13:58:30.090Z,73.50
2023-01-27T14:01:43.596Z,72.90
2023-01-27T14:05:07.055Z,72.80
2023-01-27T14:08:10.995Z,71.80
2023-01-27T14:11:14.572Z,71.00
2023-01-27T14:14:11.431Z,70.30
2023-01-27T14:17:26.397Z,69.80
2023-01-27T14:20:33.536Z,69.30
2023-01-27T14:23:46.571Z,68.80
2023-01-27T14:26:47.424Z,68.50
2023-01-27T14:29:50.748Z,68.70
2023-01-27T14:32:58.175Z,68.70
2023-01-27T14:36:18.850Z,68.60
2023-01-27T14:39:44.379Z,68.20
2023-01-27T14:42:29.876Z,68.50
2023-01-27T14:45:27.161Z,68.50
2023-01-27T14:48:15.176Z,68.50
2023-01-27T14:51:12.621Z,68.50
2023-01-27T14:54:22.197Z,68.50
2023-01-27T14:57:14.712Z,68.40
2023-01-27T15:00:17.661Z,68.40
2023-01-27T15:03:23.517Z,68.30
2023-01-27T15:06:45.892Z,68.40
2023-01-27T15:09:58.282Z,68.40
2023-01-27T15:13:05.911Z,68.40
2023-01-27T15:15:57.024Z,68.30
2023-01-27T15:19:05.500Z,68.30
2023-01-27T15:22:08.244Z,68.30
2023-01-27T15:25:04.423Z,68.30
2023-01-27T15:27:53.488Z,68.30
2023-01-27T15:30:38.882Z,68.20
2023-01-27T15:33:49.635Z,68.50
2023-01-27T15:36:36.928Z,68.60
2023-01-27T15:39:35.617Z,68.60
2023-01-27T15:42:51.899Z,68.70
2023-01-27T15:45:41.649Z,68.50
2023-01-27T15:48:38.204Z,68.80
2023-01-27T15:51:24.426Z,69.10
2023-01-27T15:54:17.718Z,69.00
2023-01-27T15:57:25.396Z,69.00
2023-01-27T16:00:42.332Z,68.90
2023-01-27T16:03:44.976Z,68.90
2023-01-27T16:06:30.554Z,68.90
2023-01-27T16:09:31.216Z,68.80
2023-01-27T16:12:40.039Z,68.60
2023-01-27T16:15:35.159Z,68.70
2023-01-27T16:18:28.140Z,68.60
2023-01-27T16:21:39.742Z,68.30
2023-01-27T16:24:34.615Z,68.20
2023-01-27T16:27:38.700Z,68.10
2023-01-27T16:30:35.197Z,68.10
2023-01-27T16:33:29.968Z,68.20
2023-01-27T16:36:28.887Z,68.00
2023-01-27T16:39:45.149Z,68.10
2023-01-27T16:42:37.781Z,68.10
2023-01-27T16:45:30.496Z,68.10
2023-01-27T16:48:43.145Z,68.20
2023-01-27T16:51:31.782Z,68.00
2023-01-27T16:54:29.193Z,67.50
2023-01-27T16:57:35.411Z,67.50
2023-01-27T17:00:23.026Z,67.40
2023-01-27T17:03:15.875Z,67.30
2023-01-27T17:06:07.088Z,67.30
2023-01-27T17:08:52.883Z,66.70
2023-01-27T17:11:38.604Z,67.00
2023-01-27T17:14:36.330Z,66.30
2023-01-27T17:17:24.295Z,66.40
2023-01-27T17:20:22.233Z,66.40
2023-01-27T17:23:19.489Z,66.00
2023-01-27T17:26:14.192Z,65.70
2023-01-27T17:28:59.660Z,65.70
2023-01-27T17:31:46.237Z,65.70
2023-01-27T17:34:41.586Z,65.90
2023-01-27T17:37:29.611Z,66.00
2023-01-27T17:40:18.502Z,66.40
2023-01-27T17:43:31.982Z,66.50
2023-01-27T17:46:23.805Z,67.10
2023-01-27T17:49:19.577Z,68.20
2023-01-27T17:52:09.553Z,69.00
2023-01-27T17:54:55.757Z,69.60
2023-01-27T17:57:41.212Z,69.70
2023-01-27T18:00:33.498Z,69.60
2023-01-27T18:03:30.663Z,69.30
2023-01-27T18:06:19.355Z,69.50
2023-01-27T18:09:24.713Z,70.00
2023-01-27T18:12:34.103Z,70.80
2023-01-27T18:15:39.346Z,71.50
2023-01-27T18:18:30.422Z,71.80
2023-01-27T18:21:29.742Z,72.30
2023-01-27T18:24:24.209Z,72.90
2023-01-27T18:27:26.124Z,73.30
2023-01-27T18:30:19.145Z,73.10
2023-01-27T18:33:06.725Z,72.60
2023-01-27T18:35:59.739Z,72.20
2023-01-27T18:38:49.777Z,71.30
2023-01-27T18:41:38.183Z,70.80
2023-01-27T18:44:27.203Z,69.50
2023-01-27T18:47:18.846Z,68.90
2023-01-27T18:50:10.563Z,68.50
2023-01-27T18:52:56.059Z,68.30
2023-01-27T18:55:44.083Z,67.70
2023-01-27T18:58:29.194Z,67.60
2023-01-27T19:01:22.104Z,67.20
2023-01-27T19:04:12.924Z,67.00
2023-01-27T19:06:58.911Z,67.10
2023-01-27T19:09:47.387Z,67.00
2023-01-27T19:12:35.384Z,67.00
2023-01-27T19:15:24.110Z,66.90
2023-01-27T19:18:15.979Z,66.70
2023-01-27T19:21:04.205Z,66.90
2023-01-27T19:23:51.798Z,66.80
2023-01-27T19:26:39.719Z,66.80
2023-01-27T19:29:26.089Z,66.50
2023-01-27T19:32:14.154Z,66.90
2023-01-27T19:34:59.690Z,66.70
2023-01-27T19:37:46.221Z,66.80
2023-01-27T19:40:32.273Z,66.70
2023-01-27T19:43:17.871Z,66.60
2023-01-27T19:46:06.616Z,66.60
2023-01-27T19:48:55.605Z,66.60
2023-01-27T19:51:42.907Z,66.60
2023-01-27T19:54:30.218Z,67.00
2023-01-27T19:57:17.900Z,67.00
2023-01-27T20:00:06.565Z,67.10
2023-01-27T20:02:52.120Z,67.20
2023-01-27T20:05:37.752Z,67.40
2023-01-27T20:08:26.293Z,67.00
2023-01-27T20:11:34.088Z,67.10
2023-01-27T20:14:20.383Z,67.10
2023-01-27T20:17:05.701Z,67.50
2023-01-27T20:19:51.503Z,67.00
2023-01-27T20:22:37.403Z,66.70
2023-01-27T20:25:25.109Z,66.40
2023-01-27T20:28:12.278Z,66.30
2023-01-27T20:30:57.852Z,66.30
2023-01-27T20:33:49.808Z,66.30
2023-01-27T20:36:35.298Z,66.30
2023-01-27T20:39:20.635Z,65.70
2023-01-27T20:42:08.474Z,65.90
2023-01-27T20:44:54.246Z,65.60
2023-01-27T20:47:40.546Z,66.30
2023-01-27T20:50:29.156Z,64.80
2023-01-27T20:53:14.626Z,64.90
2023-01-27T20:56:00.766Z,64.80
2023-01-27T20:58:47.245Z,65.00
2023-01-27T21:01:36.260Z,65.00
2023-01-27T21:04:21.977Z,64.40
2023-01-27T21:07:07.974Z,64.50
2023-01-27T21:09:53.626Z,64.10
2023-01-27T21:12:39.232Z,64.30
2023-01-27T21:15:24.533Z,64.40
2023-01-27T21:18:12.114Z,63.80
2023-01-27T21:21:02.640Z,63.90
2023-01-27T21:23:51.346Z,64.00
2023-01-27T21:26:38.069Z,63.70
2023-01-27T21:29:23.783Z,63.60
2023-01-27T21:32:09.963Z,63.80
2023-01-27T21:34:58.670Z,63.90
2023-01-27T21:37:44.356Z,64.10
2023-01-27T21:40:29.921Z,64.60
2023-01-27T21:43:33.947Z,65.10
2023-01-27T21:46:19.715Z,65.50
2023-01-27T21:49:05.950Z,65.50
2023-01-27T21:51:52.098Z,66.30
2023-01-27T21:54:37.834Z,66.60
2023-01-27T21:57:23.358Z,66.90
2023-01-27T22:00:10.971Z,67.00
2023-01-27T22:03:00.976Z,67.00
2023-01-27T22:05:46.913Z,67.10
2023-01-27T22:08:37.360Z,67.50
2023-01-27T22:11:22.457Z,67.60
2023-01-27T22:14:08.588Z,68.10
2023-01-27T22:16:53.823Z,68.20
2023-01-27T22:19:39.595Z,68.60
2023-01-27T22:22:25.084Z,69.90
2023-01-27T22:25:13.262Z,69.70
2023-01-27T22:27:59.025Z,70.30
2023-01-27T22:30:44.518Z,70.70
2023-01-27T22:33:32.057Z,71.30
2023-01-27T22:36:19.906Z,71.40
2023-01-27T22:39:05.461Z,72.10
2023-01-27T22:41:51.539Z,72.30
2023-01-27T22:44:36.811Z,73.10
2023-01-27T22:47:22.446Z,73.00
2023-01-27T22:50:08.948Z,73.00
2023-01-27T22:52:54.422Z,73.40
2023-01-27T22:55:40.386Z,73.80
2023-01-27T22:58:26.296Z,74.20
2023-01-27T23:01:14.568Z,74.30
2023-01-27T23:03:59.834Z,74.30
2023-01-27T23:06:46.017Z,74.30
2023-01-27T23:09:32.305Z,73.70
2023-01-27T23:12:18.108Z,73.40
2023-01-27T23:15:04.095Z,72.80
2023-01-27T23:17:49.573Z,72.70
2023-01-27T23:20:35.235Z,73.10
2023-01-27T23:23:20.764Z,73.30
2023-01-27T23:26:09.677Z,73.90
2023-01-27T23:28:55.421Z,74.00
2023-01-27T23:31:40.873Z,74.40
2023-01-27T23:34:26.824Z,75.40
2023-01-27T23:37:12.617Z,75.30
2023-01-27T23:40:00.419Z,76.00
2023-01-27T23:42:46.462Z,76.00
2023-01-27T23:45:32.845Z,76.60
2023-01-27T23:48:18.654Z,77.60
2023-01-27T23:51:13.217Z,78.00
2023-01-27T23:53:58.903Z,78.40
2023-01-27T23:56:44.983Z,78.60
2023-01-27T23:59:32.738Z,79.10
